West Branch, Pennsylvania
Current Conditions -  °F | °C
As of 8:55 AM on Monday 24 Nov 2014 (Local Time) from KN38 Reporting Station
Overcast Overcast  
Wind Chill: 55°   Ceiling: 1600
Heat Index: 55°   Visibility: 10mi
Dew Point: 52°   Wind: 20mph
Humidity: 88%   Direction: 200°SSW
Pressure: 29.52"   Gusts: 29mph
Location:  41.6755°N, 77.7071°W
Report Text: KN38 241355Z AUTO 20017G25KT 10SM BKN016 BKN025 OVC055 13/11 A2952 RMK AO2
Loading
Personal Weather Stations






























Interactive Weather Map New forecast layout! Learn more

10-Day Weather Forecast

Advertisements
Track Severe Weather on mobile